This is the latest recevied weather packets stored in our database for station/object KM4KBD. If no packets are shown the sender has not sent any weather packets the latest 10 day(s).
| Time | Temp. | Humidity | Pressure | Rain* | Wind** | Luminosity | Snow |
|---|---|---|---|---|---|---|---|
| 1777743479 | 13.89° C | 46% | 1023.2 hPa | 0 mm | - | 297 W/m² | - |
| 1777743176 | 13.89° C | 45% | 1023.2 hPa | 0 mm | - | 373 W/m² | - |
| 1777742875 | 13.33° C | 48% | 1023.1 hPa | 0 mm | - | 335 W/m² | - |
| 1777742570 | 13.33° C | 46% | 1023.2 hPa | 0 mm | - | 301 W/m² | - |
| 1777742266 | 13.33° C | 47% | 1023.4 hPa | 0 mm | - | 264 W/m² | - |
| 1777741964 | 12.78° C | 47% | 1023.4 hPa | 0 mm | - | 174 W/m² | - |
| 1777741660 | 12.78° C | 51% | 1023.3 hPa | 0 mm | - | 137 W/m² | - |
| 1777741357 | 11.67° C | 51% | 1023.2 hPa | 0 mm | - | 193 W/m² | - |
| 1777741053 | 12.78° C | 49% | 1023.3 hPa | 0 mm | - | 225 W/m² | - |
| 1777740750 | 13.89° C | 46% | 1023.5 hPa | 0 mm | - | 268 W/m² | - |
| 1777740446 | 13.89° C | 47% | 1023.3 hPa | 0 mm | - | 823 W/m² | - |
| 1777740145 | 15° C | 44% | 1023.4 hPa | 0 mm | - | 956 W/m² | - |
| 1777739840 | 13.89° C | 48% | 1023.4 hPa | 0 mm | - | 861 W/m² | - |
| 1777739537 | 14.44° C | 49% | 1023.4 hPa | 0 mm | - | 324 W/m² | - |
| 1777739234 | 13.89° C | 55% | 1023.5 hPa | 0 mm | - | 794 W/m² | - |
| 1777738930 | 13.33° C | 51% | 1023.7 hPa | 0 mm | - | 569 W/m² | - |
| 1777738628 | 13.33° C | 52% | 1023.7 hPa | 0 mm | - | 169 W/m² | - |
| 1777738324 | 13.89° C | 53% | 1023.6 hPa | 0 mm | - | 161 W/m² | - |
| 1777738022 | 13.33° C | 60% | 1023.7 hPa | 0 mm | - | 838 W/m² | - |
| 1777737721 | 13.89° C | 52% | 1023.8 hPa | 0 mm | - | 223 W/m² | - |
| 1777737419 | 12.78° C | 61% | 1023.7 hPa | 0 mm | - | 776 W/m² | - |
| 1777737116 | 12.78° C | 54% | 1023.8 hPa | 0 mm | - | 808 W/m² | - |
| 1777736812 | 13.33° C | 54% | 1023.9 hPa | 0 mm | - | 184 W/m² | - |
| 1777736189 | 12.22° C | 57% | 1023.9 hPa | 0 mm | - | 752 W/m² | - |
| 1777735886 | 11.11° C | 62% | 1023.8 hPa | 0 mm | - | 212 W/m² | - |
* Rain latest hour (hover to see other rain measurements)
** Current wind speed in m/s (hover to see current wind gust speed)